Time;durP1;ratioP1;P1;durP2;ratioP2;P2;SDS_P1;SDS_P2;PMS_P1;PMS_P2;Temp;Humidity;BMP_temperature;BMP_pressure;BME280_temperature;BME280_humidity;BME280_pressure;Samples;Min_cycle;Max_cycle;Signal;HPM_P1;HPM_P2
2024/03/05 00:00:44;;;;;;;16.53;8.77;;;;;;;6.98;100.00;100713.22;2089957;28;20182;-63
2024/03/05 00:01:44;;;;;;;16.58;9.60;;;;;;;7.53;100.00;100796.63;2090192;28;20439;-63
2024/03/05 00:02:45;;;;;;;15.87;9.67;;;;;;;7.51;100.00;100798.22;2089559;28;20182;-64
2024/03/05 00:03:45;;;;;;;14.53;9.20;;;;;;;7.50;100.00;100803.00;2089924;28;20191;-63
2024/03/05 00:04:46;;;;;;;15.23;9.17;;;;;;;7.53;100.00;100804.16;2089844;28;20176;-62
2024/03/05 00:05:47;;;;;;;14.93;9.17;;;;;;;7.51;100.00;100801.78;2089952;28;20660;-63
2024/03/05 00:06:47;;;;;;;14.43;9.23;;;;;;;7.19;100.00;100750.84;2090172;28;20193;-64
2024/03/05 00:07:48;;;;;;;15.23;9.00;;;;;;;7.49;100.00;100797.88;2089915;28;20439;-63
2024/03/05 00:08:49;;;;;;;13.53;8.53;;;;;;;7.50;100.00;100805.75;2090183;28;20232;-63
2024/03/05 00:09:49;;;;;;;12.70;8.57;;;;;;;7.48;100.00;100807.34;2089910;28;20230;-63
2024/03/05 00:10:49;;;;;;;18.50;9.47;;;;;;;7.48;100.00;100805.34;2089899;28;20657;-63
2024/03/05 00:11:51;;;;;;;14.63;9.13;;;;;;;7.46;100.00;100804.97;2089921;28;20652;-63
2024/03/05 00:12:52;;;;;;;12.27;8.75;;;;;;;7.48;100.00;100802.59;2093263;28;20236;-63
2024/03/05 00:13:53;;;;;;;13.02;7.97;;;;;;;7.48;100.00;100799.06;2098135;28;20183;-63
2024/03/05 00:14:55;;;;;;;13.67;9.10;;;;;;;7.51;100.00;100806.50;2098264;28;20183;-63
2024/03/05 00:15:57;;;;;;;14.70;9.30;;;;;;;7.52;100.00;100806.09;2098155;28;20179;-63
2024/03/05 00:16:57;;;;;;;14.63;9.68;;;;;;;7.49;100.00;100806.16;2098164;28;20191;-63
2024/03/05 00:17:58;;;;;;;13.20;8.87;;;;;;;7.47;100.00;100803.78;2098343;28;20176;-63
2024/03/05 00:18:59;;;;;;;12.57;8.07;;;;;;;7.47;100.00;100801.03;2098130;28;20175;-63
2024/03/05 00:19:59;;;;;;;19.70;8.73;;;;;;;7.47;100.00;100803.00;2098150;28;20236;-63
2024/03/05 00:21:00;;;;;;;15.47;9.67;;;;;;;7.45;100.00;100802.63;2095570;28;20178;-63
2024/03/05 00:22:00;;;;;;;14.70;8.83;;;;;;;7.49;100.00;100800.63;2091849;28;20264;-62
2024/03/05 00:23:01;;;;;;;12.07;8.73;;;;;;;7.48;100.00;100801.81;2089829;28;20178;-63
2024/03/05 00:24:01;;;;;;;17.77;9.40;;;;;;;7.48;100.00;100802.59;2089793;28;20180;-62
2024/03/05 00:25:02;;;;;;;12.50;8.47;;;;;;;7.47;100.00;100797.47;2089852;28;20180;-63
2024/03/05 00:26:03;;;;;;;17.43;11.07;;;;;;;7.45;100.00;100797.91;2089846;28;20180;-63
2024/03/05 00:27:04;;;;;;;13.68;9.18;;;;;;;7.44;100.00;100795.56;2091891;28;20177;-64
2024/03/05 00:28:05;;;;;;;13.33;9.07;;;;;;;7.39;100.00;100787.72;2098142;28;20183;-63
2024/03/05 00:29:06;;;;;;;15.70;10.63;;;;;;;7.44;100.00;100793.56;2098222;28;20181;-63
2024/03/05 00:30:12;;;;;;;14.68;9.07;;;;;;;7.45;100.00;100788.84;2098116;28;20182;-62
2024/03/05 00:31:12;;;;;;;15.02;10.07;;;;;;;7.45;100.00;100789.63;2098340;28;20545;-63
2024/03/05 00:32:13;;;;;;;13.90;7.40;;;;;;;7.29;100.00;100763.78;2097857;28;20234;-63
2024/03/05 00:33:13;;;;;;;17.20;7.90;;;;;;;7.43;100.00;100789.25;2091350;28;20183;-63
2024/03/05 00:34:14;;;;;;;12.93;9.23;;;;;;;7.41;100.00;100794.38;2095373;28;20204;-62
2024/03/05 00:35:15;;;;;;;15.68;9.13;;;;;;;7.45;100.00;100788.84;2098045;28;20710;-62
2024/03/05 00:36:15;;;;;;;13.43;8.37;;;;;;;7.45;100.00;100799.88;2098191;28;20603;-62
2024/03/05 00:37:16;;;;;;;14.80;8.70;;;;;;;7.42;100.00;100792.41;2094539;28;20693;-63
2024/03/05 00:38:17;;;;;;;11.63;7.80;;;;;;;7.38;100.00;100792.44;2098072;28;20172;-63
2024/03/05 00:39:18;;;;;;;11.97;7.57;;;;;;;7.35;100.00;100787.75;2098118;28;20168;-63
2024/03/05 00:40:19;;;;;;;13.48;7.63;;;;;;;7.32;100.00;100782.25;2098137;28;20638;-63
2024/03/05 00:41:19;;;;;;;11.70;7.83;;;;;;;7.39;100.00;100787.72;2098167;28;20538;-63
2024/03/05 00:42:20;;;;;;;11.10;7.37;;;;;;;7.36;100.00;100785.75;2098072;28;20658;-63
2024/03/05 00:43:20;;;;;;;13.70;8.57;;;;;;;7.24;100.00;100765.00;2098054;28;20184;-63
2024/03/05 00:44:21;;;;;;;13.00;8.00;;;;;;;7.35;100.00;100786.94;2098211;28;20175;-63
2024/03/05 00:45:22;;;;;;;11.80;8.53;;;;;;;7.30;100.00;100782.66;2098153;28;20176;-63
2024/03/05 00:46:23;;;;;;;11.70;7.50;;;;;;;7.33;100.00;100789.34;2098164;28;20259;-63
2024/03/05 00:47:24;;;;;;;13.27;8.90;;;;;;;7.29;100.00;100789.34;2098068;28;20258;-62
2024/03/05 00:48:24;;;;;;;17.90;8.83;;;;;;;7.31;100.00;100786.19;2098009;28;20713;-63
2024/03/05 00:49:25;;;;;;;13.50;7.47;;;;;;;6.87;100.00;100718.03;2098040;28;20175;-63
2024/03/05 00:50:25;;;;;;;14.70;8.47;;;;;;;7.29;100.00;100786.59;2098226;28;20276;-63
2024/03/05 00:51:26;;;;;;;10.73;7.73;;;;;;;7.23;100.00;100776.44;2098002;28;20237;-63
2024/03/05 00:52:26;;;;;;;12.17;7.77;;;;;;;7.26;100.00;100784.66;2097936;28;20199;-63
2024/03/05 00:53:27;;;;;;;13.00;8.40;;;;;;;7.24;100.00;100784.28;2095325;28;20183;-63
2024/03/05 00:54:28;;;;;;;11.47;7.17;;;;;;;7.24;100.00;100787.06;2089727;28;20263;-62
2024/03/05 00:55:28;;;;;;;14.90;8.07;;;;;;;7.02;100.00;100769.09;2089676;28;20172;-63
2024/03/05 00:56:29;;;;;;;15.60;7.97;;;;;;;7.18;100.00;100783.13;2089754;28;20256;-63
2024/03/05 00:57:30;;;;;;;12.57;7.63;;;;;;;7.20;100.00;100780.78;2089699;28;20183;-63
2024/03/05 00:58:30;;;;;;;11.73;7.17;;;;;;;7.18;100.00;100783.13;2097143;28;20188;-63
2024/03/05 00:59:31;;;;;;;11.70;7.67;;;;;;;7.19;100.00;100781.19;2091894;28;20186;-62
2024/03/05 01:00:31;;;;;;;13.10;8.90;;;;;;;7.18;100.00;100782.38;2095141;28;20187;-62
2024/03/05 01:01:33;;;;;;;11.37;7.67;;;;;;;7.15;100.00;100786.72;2091139;28;20184;-63
2024/03/05 01:02:35;;;;;;;11.55;7.53;;;;;;;7.15;100.00;100788.69;2089700;28;20654;-63
2024/03/05 01:03:37;;;;;;;14.43;8.07;;;;;;;7.14;100.00;100790.66;2095439;28;20180;-63
2024/03/05 01:04:38;;;;;;;18.05;9.50;;;;;;;7.12;100.00;100784.75;2092849;28;20180;-63
2024/03/05 01:05:39;;;;;;;13.33;8.97;;;;;;;7.10;100.00;100780.84;2098144;28;20239;-63
2024/03/05 01:06:42;;;;;;;13.37;9.20;;;;;;;7.08;100.00;100794.25;2097940;28;20559;-63
2024/03/05 01:07:42;;;;;;;12.07;7.50;;;;;;;7.08;100.00;100788.75;2097918;28;20168;-63
2024/03/05 01:08:43;;;;;;;11.90;7.93;;;;;;;7.07;100.00;100787.19;2097968;28;20169;-62
2024/03/05 01:09:43;;;;;;;11.60;7.67;;;;;;;7.06;100.00;100785.59;2097938;28;20176;-63
2024/03/05 01:10:45;;;;;;;12.13;8.10;;;;;;;7.02;100.00;100790.38;2097997;28;20177;-63
2024/03/05 01:11:46;;;;;;;14.38;7.57;;;;;;;7.04;100.00;100786.03;2098040;28;20172;-63
2024/03/05 01:12:46;;;;;;;9.73;7.10;;;;;;;7.03;100.00;100783.66;2097872;28;20242;-63
2024/03/05 01:13:47;;;;;;;11.50;7.10;;;;;;;7.02;100.00;100782.88;2098050;28;20183;-62
2024/03/05 01:14:47;;;;;;;11.50;7.33;;;;;;;7.02;100.00;100784.84;2098712;28;20181;-62
2024/03/05 01:15:48;;;;;;;13.87;7.70;;;;;;;7.01;100.00;100797.84;2099559;28;20175;-63
2024/03/05 01:16:49;;;;;;;10.57;7.10;;;;;;;6.99;100.00;100785.66;2093369;28;20220;-63
2024/03/05 01:17:50;;;;;;;13.33;8.07;;;;;;;6.99;100.00;100794.72;2090692;28;20744;-63
2024/03/05 01:18:51;;;;;;;15.50;9.50;;;;;;;7.02;100.00;100793.88;2090639;28;20276;-63
2024/03/05 01:19:51;;;;;;;12.53;7.57;;;;;;;7.02;100.00;100799.41;2091196;28;20184;-62
2024/03/05 01:20:53;;;;;;;13.67;7.40;;;;;;;6.98;100.00;100795.88;2091245;28;20245;-63
2024/03/05 01:21:54;;;;;;;11.85;7.68;;;;;;;6.74;100.00;100761.03;2092997;28;20186;-63
2024/03/05 01:22:54;;;;;;;11.98;7.70;;;;;;;6.01;100.00;100648.59;2091177;28;20180;-62
2024/03/05 01:23:55;;;;;;;12.57;6.97;;;;;;;7.04;100.00;100802.56;2091267;28;20693;-63
2024/03/05 01:24:55;;;;;;;14.00;7.30;;;;;;;7.03;100.00;100797.44;2099540;28;20661;-63
2024/03/05 01:25:58;;;;;;;12.37;7.47;;;;;;;6.99;100.00;100797.47;2099453;28;20266;-63
2024/03/05 01:26:59;;;;;;;15.55;7.35;;;;;;;6.99;100.00;100794.72;2099413;28;20172;-63
2024/03/05 01:27:59;;;;;;;11.33;7.07;;;;;;;6.97;100.00;100797.06;2099431;28;20185;-63
2024/03/05 01:29:00;;;;;;;11.93;7.13;;;;;;;7.00;100.00;100806.50;2098745;28;20174;-63
2024/03/05 01:30:00;;;;;;;11.30;7.00;;;;;;;5.82;100.00;100616.84;2098872;28;20734;-63
2024/03/05 01:31:02;;;;;;;12.70;7.63;;;;;;;7.00;100.00;100804.53;2099542;28;20203;-63
2024/03/05 01:32:03;;;;;;;11.38;8.13;;;;;;;7.00;100.00;100803.75;2098163;28;20685;-64
2024/03/05 01:33:05;;;;;;;11.75;7.40;;;;;;;6.91;100.00;100786.88;2093058;28;20725;-62
2024/03/05 01:34:06;;;;;;;11.82;7.03;;;;;;;7.02;100.00;100806.91;2099406;28;20576;-63
2024/03/05 01:35:10;;;;;;;13.23;8.23;;;;;;;6.96;100.00;100801.03;2094234;28;20181;-62
2024/03/05 01:36:10;;;;;;;14.10;7.15;;;;;;;6.96;100.00;100800.22;2091154;28;20658;-63
2024/03/05 01:37:11;;;;;;;15.17;7.83;;;;;;;6.99;100.00;100807.69;2095141;28;20717;-63
2024/03/05 01:38:12;;;;;;;16.27;7.90;;;;;;;6.99;100.00;100799.44;2099367;28;20184;-63
2024/03/05 01:39:12;;;;;;;17.93;7.83;;;;;;;6.97;100.00;100804.56;2092449;28;20181;-63
2024/03/05 01:40:13;;;;;;;13.10;7.43;;;;;;;6.94;100.00;100806.16;2091317;28;20232;-63
2024/03/05 01:41:14;;;;;;;12.80;8.00;;;;;;;6.45;100.00;100731.28;2097018;28;20243;-63
2024/03/05 01:42:14;;;;;;;14.30;8.23;;;;;;;6.91;100.00;100811.66;2099324;28;20609;-62
2024/03/05 01:43:16;;;;;;;13.03;7.03;;;;;;;6.79;100.00;100790.09;2098604;28;20741;-63
2024/03/05 01:44:17;;;;;;;10.90;7.55;;;;;;;6.93;100.00;100814.81;2098737;28;20172;-62
2024/03/05 01:45:18;;;;;;;13.40;8.53;;;;;;;6.87;100.00;100799.91;2099262;28;20183;-63
2024/03/05 01:46:19;;;;;;;11.43;8.13;;;;;;;6.92;100.00;100807.75;2099072;28;20183;-63
2024/03/05 01:47:20;;;;;;;11.83;7.67;;;;;;;6.92;100.00;100805.00;2091041;28;20192;-62
2024/03/05 01:48:21;;;;;;;10.87;7.50;;;;;;;6.93;100.00;100806.56;2090985;28;20433;-63
2024/03/05 01:49:23;;;;;;;14.83;7.80;;;;;;;6.92;100.00;100805.75;2090975;28;20227;-63
2024/03/05 01:50:24;;;;;;;14.63;7.35;;;;;;;6.90;100.00;100805.38;2091030;28;20226;-63
2024/03/05 01:51:24;;;;;;;15.43;8.00;;;;;;;6.89;100.00;100805.78;2090981;28;20253;-63
2024/03/05 01:52:27;;;;;;;12.87;7.97;;;;;;;6.87;100.00;100836.47;2097545;28;20600;-63
2024/03/05 01:53:28;;;;;;;11.32;7.63;;;;;;;6.87;100.00;100814.44;2096827;28;20188;-63
2024/03/05 01:54:29;;;;;;;13.63;7.57;;;;;;;6.88;100.00;100806.97;2099432;28;20188;-62
2024/03/05 01:55:30;;;;;;;11.68;7.70;;;;;;;6.89;100.00;100806.59;2093520;28;20505;-63
2024/03/05 01:56:30;;;;;;;10.05;7.00;;;;;;;6.92;100.00;100808.50;2091011;28;20176;-62
2024/03/05 01:57:32;;;;;;;12.97;7.57;;;;;;;6.89;100.00;100811.28;2091316;28;20211;-63
2024/03/05 01:58:33;;;;;;;12.27;8.45;;;;;;;6.72;100.00;100787.41;2099179;28;20175;-62
2024/03/05 01:59:34;;;;;;;12.50;7.70;;;;;;;6.89;100.00;100801.06;2099327;28;20182;-63
2024/03/05 02:00:38;;;;;;;11.43;7.23;;;;;;;6.87;100.00;100808.16;2099170;28;20183;-63
2024/03/05 02:01:39;;;;;;;12.05;7.10;;;;;;;6.87;100.00;100813.69;2099164;28;20256;-63
2024/03/05 02:02:39;;;;;;;14.13;7.00;;;;;;;6.87;100.00;100806.19;2099154;28;20168;-63
2024/03/05 02:03:40;;;;;;;11.33;7.57;;;;;;;6.85;100.00;100807.78;2093942;28;20177;-63
2024/03/05 02:04:44;;;;;;;11.13;6.80;;;;;;;6.85;100.00;100810.53;2090886;28;20184;-62
2024/03/05 02:05:46;;;;;;;13.13;7.47;;;;;;;6.85;100.00;100805.03;2095083;28;20249;-63
2024/03/05 02:06:51;;;;;;;11.35;7.30;;;;;;;6.78;100.00;100800.34;2096364;28;20302;-63
2024/03/05 02:07:55;;;;;;;16.10;8.82;;;;;;;6.42;100.00;100746.63;2093316;28;20208;-63
2024/03/05 02:08:55;;;;;;;11.98;6.95;;;;;;;6.81;100.00;100809.78;2096310;28;20195;-63
2024/03/05 02:09:57;;;;;;;12.47;7.33;;;;;;;6.84;100.00;100814.47;2094917;28;20192;-62
2024/03/05 02:10:57;;;;;;;14.13;7.38;;;;;;;6.42;100.00;100743.13;2090779;28;20259;-63
2024/03/05 02:11:59;;;;;;;16.87;9.73;;;;;;;6.81;100.00;100813.31;2090835;28;20256;-63
2024/03/05 02:12:59;;;;;;;10.20;6.72;;;;;;;6.81;100.00;100804.28;2090695;28;20207;-63
2024/03/05 02:14:00;;;;;;;13.83;7.43;;;;;;;6.81;100.00;100807.03;2090796;28;20180;-63
2024/03/05 02:15:01;;;;;;;12.10;7.80;;;;;;;6.75;100.00;100797.59;2090858;28;20268;-63
2024/03/05 02:16:01;;;;;;;15.10;8.20;;;;;;;6.81;100.00;100802.28;2090992;28;20661;-63
2024/03/05 02:17:21;;;;;;;13.10;7.33;;;;;;;6.83;100.00;100807.41;2097978;28;20188;-62
2024/03/05 02:18:21;;;;;;;15.07;8.93;;;;;;;6.84;100.00;100808.97;2099254;28;20178;-63
2024/03/05 02:19:22;;;;;;;12.20;6.93;;;;;;;6.75;100.00;100800.34;2098421;28;20216;-63
2024/03/05 02:20:22;;;;;;;13.67;7.60;;;;;;;6.80;100.00;100808.19;2098440;28;20184;-63
2024/03/05 02:21:23;;;;;;;12.27;7.57;;;;;;;6.80;100.00;100813.69;2096479;28;20185;-63
2024/03/05 02:22:23;;;;;;;15.37;7.63;;;;;;;6.77;100.00;100815.28;2090750;28;20217;-63
2024/03/05 02:23:42;;;;;;;12.33;7.73;;;;;;;6.77;100.00;100815.28;2090836;28;20650;-63
2024/03/05 02:24:43;;;;;;;13.90;8.60;;;;;;;6.31;100.00;100743.16;2094693;28;20184;-64
2024/03/05 02:25:44;;;;;;;15.50;7.27;;;;;;;6.55;100.00;100813.03;2098720;28;20214;-63
2024/03/05 02:26:45;;;;;;;13.35;7.93;;;;;;;6.73;100.00;100825.56;2099094;28;20321;-63
2024/03/05 02:27:47;;;;;;;13.90;7.90;;;;;;;6.77;100.00;100842.06;2099220;28;20237;-63
2024/03/05 02:28:49;;;;;;;13.18;7.32;;;;;;;6.64;100.00;100796.88;2099063;28;20184;-63
2024/03/05 02:29:52;;;;;;;9.40;6.00;;;;;;;6.75;100.00;100819.63;2098976;28;20175;-62
2024/03/05 02:30:52;;;;;;;11.20;6.60;;;;;;;6.65;100.00;100809.44;2098986;28;20176;-62
2024/03/05 02:31:53;;;;;;;10.00;6.87;;;;;;;6.76;100.00;100832.25;2098780;28;20709;-62
2024/03/05 02:32:54;;;;;;;9.57;7.03;;;;;;;6.77;100.00;100822.78;2099083;28;20278;-62
2024/03/05 02:33:55;;;;;;;13.57;7.30;;;;;;;6.68;100.00;100805.91;2098932;28;20705;-63
2024/03/05 02:34:55;;;;;;;12.63;7.20;;;;;;;6.53;100.00;100787.88;2098970;28;20186;-62
2024/03/05 02:35:59;;;;;;;14.57;7.53;;;;;;;6.76;100.00;100819.25;2095469;28;20238;-63
2024/03/05 02:37:00;;;;;;;16.08;8.57;;;;;;;6.76;100.00;100823.97;2090582;28;20190;-62
2024/03/05 02:38:00;;;;;;;12.73;7.30;;;;;;;6.76;100.00;100826.72;2090724;28;20685;-63
2024/03/05 02:39:01;;;;;;;11.37;6.97;;;;;;;6.72;100.00;100821.22;2090606;28;20415;-63
2024/03/05 02:40:03;;;;;;;12.70;6.93;;;;;;;6.64;100.00;100807.88;2090728;28;20578;-63
2024/03/05 02:41:04;;;;;;;13.63;7.35;;;;;;;6.77;100.00;100829.06;2090643;28;20198;-62
2024/03/05 02:42:05;;;;;;;13.80;6.73;;;;;;;6.78;100.00;100827.09;2090578;28;20196;-64
2024/03/05 02:43:06;;;;;;;17.27;7.00;;;;;;;6.79;100.00;100823.16;2090643;28;20257;-63
2024/03/05 02:44:07;;;;;;;15.57;7.15;;;;;;;6.81;100.00;100820.81;2090681;28;20585;-63
2024/03/05 02:45:10;;;;;;;11.27;7.00;;;;;;;6.80;100.00;100817.25;2090556;28;20200;-63
2024/03/05 02:46:13;;;;;;;17.25;8.95;;;;;;;6.83;100.00;100821.94;2092464;28;20176;-63
2024/03/05 02:47:13;;;;;;;13.90;6.85;;;;;;;6.83;100.00;100830.19;2098849;28;20263;-62
2024/03/05 02:48:14;;;;;;;12.90;7.60;;;;;;;6.78;100.00;100816.09;2093998;28;20192;-62
2024/03/05 02:49:14;;;;;;;16.70;7.50;;;;;;;6.86;100.00;100829.41;2090678;28;20558;-63
2024/03/05 02:50:15;;;;;;;11.80;7.30;;;;;;;6.86;100.00;100834.94;2098289;28;20668;-62
2024/03/05 02:51:15;;;;;;;11.77;6.90;;;;;;;6.92;100.00;100840.81;2098806;28;20263;-63
2024/03/05 02:52:16;;;;;;;14.33;8.13;;;;;;;6.93;100.00;100843.13;2098675;28;20185;-63
2024/03/05 02:53:17;;;;;;;15.53;7.20;;;;;;;6.61;100.00;100792.19;2098776;28;20168;-62
2024/03/05 02:54:17;;;;;;;14.93;7.50;;;;;;;7.01;100.00;100846.63;2098757;28;20175;-63
2024/03/05 02:55:18;;;;;;;16.73;8.67;;;;;;;7.04;100.00;100840.34;2098838;28;20179;-62
2024/03/05 02:56:18;;;;;;;17.30;8.17;;;;;;;5.94;100.00;100656.88;2098960;28;20203;-62
2024/03/05 02:57:19;;;;;;;15.80;8.27;;;;;;;7.15;100.00;100846.56;2098719;28;20167;-63
2024/03/05 02:58:20;;;;;;;15.07;7.80;;;;;;;7.12;100.00;100836.34;2098698;28;20200;-63
2024/03/05 02:59:20;;;;;;;13.48;7.75;;;;;;;7.21;100.00;100845.72;2098802;28;20169;-63
2024/03/05 03:00:24;;;;;;;11.93;6.80;;;;;;;7.26;100.00;100844.50;2098747;28;20207;-63
2024/03/05 03:01:24;;;;;;;14.82;7.60;;;;;;;7.26;100.00;100842.56;2098704;28;20557;-63
2024/03/05 03:02:25;;;;;;;17.57;8.07;;;;;;;7.28;100.00;100847.66;2098784;28;20182;-62
2024/03/05 03:03:25;;;;;;;11.87;7.60;;;;;;;7.19;100.00;100826.06;2098688;28;20247;-63
2024/03/05 03:04:26;;;;;;;14.90;6.93;;;;;;;7.37;100.00;100839.69;2097209;28;20180;-63
2024/03/05 03:05:26;;;;;;;13.87;6.90;;;;;;;7.33;100.00;100831.47;2094482;28;20673;-63
2024/03/05 03:06:27;;;;;;;13.87;8.37;;;;;;;7.29;100.00;100816.91;2090431;28;20165;-63
2024/03/05 03:07:27;;;;;;;14.03;7.53;;;;;;;7.29;100.00;100827.94;2090376;28;20614;-62
2024/03/05 03:08:29;;;;;;;14.70;7.57;;;;;;;7.10;100.00;100776.13;2091760;28;20529;-63
2024/03/05 03:09:29;;;;;;;14.90;7.90;;;;;;;7.55;100.00;100841.16;2085084;28;20209;-63
2024/03/05 03:10:30;;;;;;;15.17;7.13;;;;;;;7.60;100.00;100850.97;2098844;28;20181;-63
2024/03/05 03:11:31;;;;;;;16.80;7.40;;;;;;;7.59;100.00;100843.88;2098645;28;20199;-63
2024/03/05 03:12:31;;;;;;;13.60;7.20;;;;;;;7.53;100.00;100832.50;2098534;28;20446;-63
2024/03/05 03:13:32;;;;;;;15.53;8.00;;;;;;;7.67;100.00;100857.19;2098729;28;20261;-64
2024/03/05 03:14:32;;;;;;;11.90;7.70;;;;;;;7.66;100.00;100852.88;2093025;28;20205;-63
2024/03/05 03:15:33;;;;;;;12.60;7.13;;;;;;;7.66;100.00;100852.09;2090337;28;20172;-63
2024/03/05 03:16:33;;;;;;;16.93;8.17;;;;;;;7.69;100.00;100862.31;2090290;28;20185;-63
2024/03/05 03:17:37;;;;;;;11.80;6.90;;;;;;;7.65;100.00;100845.00;2098694;28;20266;-63
2024/03/05 03:18:38;;;;;;;16.85;8.10;;;;;;;7.72;100.00;100856.75;2098672;28;20200;-63
2024/03/05 03:19:38;;;;;;;13.40;7.53;;;;;;;7.77;100.00;100856.31;2098669;28;20182;-63
2024/03/05 03:20:39;;;;;;;12.80;7.50;;;;;;;7.67;100.00;100843.41;2098731;28;20173;-63
2024/03/05 03:21:40;;;;;;;14.52;7.38;;;;;;;7.53;100.00;100810.44;2098648;28;20163;-62
2024/03/05 03:22:50;;;;;;;10.20;6.90;;;;;;;7.83;100.00;100860.22;2098646;28;20172;-63
2024/03/05 03:23:51;;;;;;;15.65;7.00;;;;;;;7.85;100.00;100863.34;2098647;28;20169;-63
2024/03/05 03:24:51;;;;;;;13.07;7.27;;;;;;;7.87;100.00;100858.22;2098706;28;20189;-62
2024/03/05 03:25:51;;;;;;;14.27;7.13;;;;;;;7.94;100.00;100857.38;2097846;28;20179;-63
2024/03/05 03:26:52;;;;;;;13.37;7.20;;;;;;;7.86;100.00;100848.38;2090388;28;20268;-63
2024/03/05 03:27:52;;;;;;;19.63;8.33;;;;;;;7.93;100.00;100853.00;2090265;28;20179;-63
2024/03/05 03:28:54;;;;;;;13.37;7.27;;;;;;;7.97;100.00;100867.56;2090241;28;20174;-63
2024/03/05 03:29:55;;;;;;;12.57;7.07;;;;;;;8.00;100.00;100859.25;2090184;28;20585;-63
2024/03/05 03:30:55;;;;;;;11.83;7.10;;;;;;;8.00;100.00;100850.97;2090188;28;20438;-63
2024/03/05 03:31:56;;;;;;;15.00;6.67;;;;;;;8.04;100.00;100859.25;2090155;28;20237;-63
2024/03/05 03:32:57;;;;;;;11.70;6.97;;;;;;;7.98;100.00;100849.81;2097671;28;20195;-63
2024/03/05 03:33:58;;;;;;;12.23;6.57;;;;;;;8.01;100.00;100852.56;2098487;28;20503;-63
2024/03/05 03:34:58;;;;;;;9.97;6.73;;;;;;;8.15;100.00;100860.69;2094791;28;20258;-63
2024/03/05 03:35:59;;;;;;;17.83;7.80;;;;;;;8.13;100.00;100856.75;2090267;28;20557;-62
2024/03/05 03:36:59;;;;;;;11.63;7.30;;;;;;;7.97;100.00;100828.94;2089947;28;20553;-63
2024/03/05 03:38:00;;;;;;;13.17;7.00;;;;;;;8.15;100.00;100851.63;2089751;28;20661;-63
2024/03/05 03:39:01;;;;;;;12.70;7.33;;;;;;;8.16;100.00;100859.47;2090364;28;20648;-62
2024/03/05 03:40:04;;;;;;;13.77;6.70;;;;;;;8.14;100.00;100867.41;2092246;28;20176;-63
2024/03/05 03:41:08;;;;;;;12.10;7.33;;;;;;;8.13;100.00;100862.28;2098399;28;20693;-63
2024/03/05 03:42:11;;;;;;;16.30;7.33;;;;;;;8.14;100.00;100880.41;2091115;28;20817;-63
2024/03/05 03:43:14;;;;;;;11.83;7.77;;;;;;;8.01;100.00;100840.72;2090102;28;20502;-63
2024/03/05 03:44:15;;;;;;;11.70;7.47;;;;;;;8.20;100.00;100863.03;2096538;28;20633;-63
2024/03/05 03:45:16;;;;;;;13.80;7.70;;;;;;;8.22;100.00;100868.94;2098442;28;20432;-63
2024/03/05 03:46:16;;;;;;;15.60;7.13;;;;;;;8.27;100.00;100871.25;2094514;28;20181;-63
2024/03/05 03:47:17;;;;;;;12.57;7.63;;;;;;;8.25;100.00;100861.81;2090073;28;20930;-63
2024/03/05 03:48:17;;;;;;;12.07;7.63;;;;;;;8.33;100.00;100874.31;2089366;28;20275;-62
2024/03/05 03:49:23;;;;;;;11.87;7.17;;;;;;;8.36;100.00;100873.53;2089525;28;20191;-63
2024/03/05 03:50:24;;;;;;;10.93;6.83;;;;;;;7.64;100.00;100785.53;2091914;28;20664;-63
2024/03/05 03:51:24;;;;;;;14.10;7.03;;;;;;;8.26;100.00;100872.41;2090924;28;20902;-63
2024/03/05 03:52:25;;;;;;;8.90;5.93;;;;;;;8.26;100.00;100875.19;2095875;28;20639;-63
2024/03/05 03:53:25;;;;;;;14.33;7.63;;;;;;;8.35;100.00;100889.28;2098310;28;20532;-63
2024/03/05 03:54:26;;;;;;;10.23;6.93;;;;;;;8.39;100.00;100892.00;2097612;28;20709;-63
2024/03/05 03:55:26;;;;;;;10.50;6.93;;;;;;;8.39;100.00;100887.28;2097231;28;20691;-63
2024/03/05 03:56:27;;;;;;;12.10;7.07;;;;;;;8.37;100.00;100886.13;2090142;28;20645;-63
2024/03/05 03:57:28;;;;;;;14.03;7.10;;;;;;;8.26;100.00;100866.91;2090012;28;20203;-63
2024/03/05 03:58:30;;;;;;;14.37;6.97;;;;;;;8.35;100.00;100880.25;2090132;28;20174;-63
2024/03/05 03:59:31;;;;;;;13.23;7.80;;;;;;;8.38;100.00;100891.25;2090000;28;20894;-62
2024/03/05 04:00:32;;;;;;;12.63;7.23;;;;;;;8.43;100.00;100878.97;2094558;28;20419;-63
2024/03/05 04:01:34;;;;;;;10.63;7.00;;;;;;;8.44;100.00;100883.28;2098255;28;20183;-63
2024/03/05 04:02:36;;;;;;;11.60;7.47;;;;;;;8.35;100.00;100869.97;2098248;28;20440;-63
2024/03/05 04:03:36;;;;;;;13.00;7.87;;;;;;;8.50;100.00;100887.19;2098379;28;20413;-63
2024/03/05 04:04:37;;;;;;;13.80;8.00;;;;;;;8.50;100.00;100885.19;2098174;28;20410;-63
2024/03/05 04:05:37;;;;;;;13.73;7.50;;;;;;;8.49;100.00;100880.88;2092254;28;20224;-63
2024/03/05 04:06:39;;;;;;;16.17;7.60;;;;;;;8.01;100.00;100804.84;2094636;28;20191;-63
2024/03/05 04:07:40;;;;;;;16.77;8.13;;;;;;;8.50;100.00;100890.72;2098335;28;20174;-64
2024/03/05 04:08:40;;;;;;;13.30;6.47;;;;;;;8.45;100.00;100895.91;2098180;28;20434;-63
2024/03/05 04:09:41;;;;;;;11.33;6.40;;;;;;;8.39;100.00;100884.53;2089910;28;20676;-62
2024/03/05 04:10:41;;;;;;;17.10;7.73;;;;;;;8.38;100.00;100887.69;2090144;28;20176;-63
2024/03/05 04:11:42;;;;;;;17.67;7.57;;;;;;;8.38;100.00;100880.19;2089924;28;20172;-63
2024/03/05 04:12:42;;;;;;;18.93;8.27;;;;;;;8.37;100.00;100884.16;2089909;28;20193;-63
2024/03/05 04:13:43;;;;;;;12.47;7.10;;;;;;;8.43;100.00;100885.28;2089896;28;20229;-63
2024/03/05 04:14:44;;;;;;;10.63;6.77;;;;;;;8.44;100.00;100888.81;2091541;28;20209;-63
2024/03/05 04:15:44;;;;;;;12.77;6.43;;;;;;;8.34;100.00;100871.16;2098410;28;20176;-63
2024/03/05 04:16:45;;;;;;;11.73;7.10;;;;;;;8.49;100.00;100883.63;2098392;28;20179;-62
2024/03/05 04:17:45;;;;;;;12.57;6.90;;;;;;;8.47;100.00;100890.75;2098124;28;20187;-63
2024/03/05 04:18:46;;;;;;;14.80;7.33;;;;;;;8.51;100.00;100885.97;2095383;28;20219;-62
2024/03/05 04:19:48;;;;;;;11.10;6.73;;;;;;;8.54;100.00;100887.91;2089869;28;20253;-63
2024/03/05 04:20:48;;;;;;;14.10;7.97;;;;;;;8.56;100.00;100889.06;2089882;28;20168;-63
2024/03/05 04:21:50;;;;;;;10.13;6.60;;;;;;;8.57;100.00;100893.38;2089841;28;20452;-63
2024/03/05 04:22:51;;;;;;;17.43;7.63;;;;;;;8.46;100.00;100878.91;2094367;28;20191;-63
2024/03/05 04:23:52;;;;;;;10.93;7.03;;;;;;;8.58;100.00;100892.22;2098354;28;20420;-62
2024/03/05 04:24:55;;;;;;;10.70;6.30;;;;;;;7.66;100.00;100750.03;2098156;28;20418;-64
2024/03/05 04:26:01;;;;;;;12.33;6.77;;;;;;;8.55;100.00;100894.97;2098191;28;20179;-62
2024/03/05 04:27:03;;;;;;;13.63;7.13;;;;;;;8.54;100.00;100888.69;2098132;28;20439;-63
2024/03/05 04:28:10;;;;;;;12.00;7.23;;;;;;;8.51;100.00;100894.25;2096609;28;20419;-64
2024/03/05 04:29:16;;;;;;;18.13;7.73;;;;;;;8.47;100.00;100893.50;2098225;28;20409;-62
2024/03/05 04:30:18;;;;;;;11.60;6.77;;;;;;;8.34;100.00;100871.16;2098155;28;20905;-63
2024/03/05 04:31:20;;;;;;;11.40;6.53;;;;;;;8.44;100.00;100891.56;2098200;28;20414;-63
2024/03/05 04:32:20;;;;;;;10.70;6.83;;;;;;;8.41;100.00;100890.41;2097841;28;20531;-63
2024/03/05 04:33:21;;;;;;;14.00;6.90;;;;;;;8.41;100.00;100884.13;2098358;28;20906;-63
2024/03/05 04:34:21;;;;;;;15.53;6.80;;;;;;;8.46;100.00;100887.19;2098308;28;20200;-63
2024/03/05 04:35:22;;;;;;;10.43;6.53;;;;;;;8.46;100.00;100883.66;2098053;28;20194;-63
2024/03/05 04:36:23;;;;;;;14.80;8.27;;;;;;;8.30;100.00;100870.41;2098108;28;20175;-63
2024/03/05 04:37:24;;;;;;;10.67;6.37;;;;;;;8.46;100.00;100889.97;2098162;28;20274;-63
2024/03/05 04:38:26;;;;;;;13.17;7.40;;;;;;;8.49;100.00;100896.63;2098303;28;20414;-63
2024/03/05 04:39:27;;;;;;;9.60;6.43;;;;;;;8.29;100.00;100870.81;2098051;28;20172;-63
2024/03/05 04:40:29;;;;;;;11.17;6.60;;;;;;;8.48;100.00;100897.84;2098193;28;20434;-63
2024/03/05 04:41:30;;;;;;;13.23;7.17;;;;;;;8.52;100.00;100898.59;2096340;28;20804;-63